createdAt,value
2018-09-21T00:00:33.854Z,99509.00
2018-09-21T00:03:03.196Z,99507.00
2018-09-21T00:05:32.568Z,99504.00
2018-09-21T00:08:01.881Z,99503.00
2018-09-21T00:10:31.225Z,99503.00
2018-09-21T00:13:00.639Z,99502.00
2018-09-21T00:15:30.016Z,99497.00
2018-09-21T00:17:59.409Z,99495.00
2018-09-21T00:20:28.752Z,99493.00
2018-09-21T00:22:58.083Z,99487.00
2018-09-21T00:25:27.423Z,99486.00
2018-09-21T00:27:56.732Z,99490.00
2018-09-21T00:30:26.103Z,99496.00
2018-09-21T00:32:55.445Z,99493.00
2018-09-21T00:35:24.817Z,99494.00
2018-09-21T00:37:54.180Z,99493.00
2018-09-21T00:40:23.519Z,99495.00
2018-09-21T00:42:52.844Z,99497.00
2018-09-21T00:45:22.205Z,99500.00
2018-09-21T00:47:51.580Z,99496.00
2018-09-21T00:50:20.918Z,99498.00
2018-09-21T00:52:50.265Z,99501.00
2018-09-21T00:55:19.614Z,99495.00
2018-09-21T00:57:49.024Z,99496.00
2018-09-21T01:00:18.924Z,99491.00
2018-09-21T01:02:48.268Z,99494.00
2018-09-21T01:05:17.614Z,99491.00
2018-09-21T01:07:46.970Z,99488.00
2018-09-21T01:10:16.305Z,99494.00
2018-09-21T01:12:45.647Z,99492.00
2018-09-21T01:15:15.021Z,99494.00
2018-09-21T01:17:44.409Z,99485.00
2018-09-21T01:20:13.743Z,99481.00
2018-09-21T01:22:43.117Z,99474.00
2018-09-21T01:25:12.425Z,99477.00
2018-09-21T01:27:41.806Z,99472.00
2018-09-21T01:30:11.140Z,99465.00
2018-09-21T01:32:40.503Z,99465.00
2018-09-21T01:35:09.819Z,99473.00
2018-09-21T01:37:39.151Z,99477.00
2018-09-21T01:40:08.463Z,99469.00
2018-09-21T01:42:37.828Z,99472.00
2018-09-21T01:45:07.326Z,99474.00
2018-09-21T01:47:36.678Z,99467.00
2018-09-21T01:50:06.004Z,99462.00
2018-09-21T01:52:35.349Z,99458.00
2018-09-21T01:55:04.867Z,99459.00
2018-09-21T01:57:34.226Z,99441.00
2018-09-21T02:00:03.529Z,99445.00
2018-09-21T02:02:32.876Z,99441.00
2018-09-21T02:05:02.252Z,99441.00
2018-09-21T02:07:31.613Z,99439.00
2018-09-21T02:10:00.982Z,99437.00
2018-09-21T02:12:30.313Z,99431.00
2018-09-21T02:14:59.688Z,99429.00
2018-09-21T02:17:29.090Z,99423.00
2018-09-21T02:19:58.427Z,99426.00
2018-09-21T02:22:27.762Z,99419.00
2018-09-21T02:24:57.105Z,99417.00
2018-09-21T02:27:26.456Z,99414.00
2018-09-21T02:29:55.805Z,99416.00
2018-09-21T02:32:25.155Z,99411.00
2018-09-21T02:34:54.480Z,99406.00
2018-09-21T02:37:23.801Z,99404.00
2018-09-21T02:39:53.253Z,99404.00
2018-09-21T02:42:22.663Z,99404.00
2018-09-21T02:44:51.981Z,99399.00
2018-09-21T02:47:21.413Z,99400.00
2018-09-21T02:49:50.775Z,99396.00
2018-09-21T02:52:20.116Z,99389.00
2018-09-21T02:54:49.438Z,99386.00
2018-09-21T02:57:18.786Z,99383.00
2018-09-21T02:59:48.130Z,99381.00
2018-09-21T03:02:17.519Z,99376.00
2018-09-21T03:04:52.815Z,99376.00
2018-09-21T03:07:22.920Z,99372.00
2018-09-21T03:09:52.253Z,99377.00
2018-09-21T03:12:21.651Z,99373.00
2018-09-21T03:14:50.966Z,99371.00
2018-09-21T03:17:20.281Z,99370.00
2018-09-21T03:19:49.591Z,99362.00
2018-09-21T03:22:18.939Z,99352.00
2018-09-21T03:24:48.286Z,99351.00
2018-09-21T03:27:17.682Z,99348.00
2018-09-21T03:29:47.201Z,99353.00
2018-09-21T03:32:16.518Z,99344.00
2018-09-21T03:34:45.931Z,99338.00
2018-09-21T03:37:15.216Z,99341.00
2018-09-21T03:39:44.548Z,99337.00
2018-09-21T03:42:13.868Z,99336.00
2018-09-21T03:44:43.187Z,99337.00
2018-09-21T03:47:12.653Z,99334.00
2018-09-21T03:49:41.972Z,99338.00
2018-09-21T03:52:11.320Z,99338.00
2018-09-21T03:54:40.700Z,99337.00
2018-09-21T03:57:10.020Z,99334.00
2018-09-21T03:59:39.411Z,99329.00
2018-09-21T04:02:08.763Z,99322.00
2018-09-21T04:04:41.160Z,99319.00
2018-09-21T04:07:11.165Z,99313.00
2018-09-21T04:09:40.582Z,99314.00
2018-09-21T04:12:09.889Z,99308.00
2018-09-21T04:14:44.011Z,99308.00
2018-09-21T04:17:14.303Z,99309.00
2018-09-21T04:19:43.707Z,99308.00
2018-09-21T04:22:13.051Z,99304.00
2018-09-21T04:24:42.447Z,99294.00
2018-09-21T04:27:11.789Z,99283.00
2018-09-21T04:29:41.099Z,99288.00
2018-09-21T04:32:10.464Z,99282.00
2018-09-21T04:34:39.823Z,99283.00
2018-09-21T04:37:09.171Z,99272.00
2018-09-21T04:39:38.504Z,99268.00
2018-09-21T04:42:07.834Z,99264.00
2018-09-21T04:44:37.157Z,99260.00
2018-09-21T04:47:06.611Z,99258.00
2018-09-21T04:49:35.969Z,99258.00
2018-09-21T04:52:05.586Z,99259.00
2018-09-21T04:54:34.929Z,99256.00
2018-09-21T04:57:04.281Z,99260.00
2018-09-21T04:59:33.622Z,99257.00
2018-09-21T05:02:02.970Z,99252.00
2018-09-21T05:04:32.413Z,99252.00
2018-09-21T05:07:01.774Z,99249.00
2018-09-21T05:09:31.109Z,99245.00
2018-09-21T05:12:00.472Z,99243.00
2018-09-21T05:14:29.828Z,99246.00
2018-09-21T05:16:59.169Z,99249.00
2018-09-21T05:19:28.522Z,99244.00
2018-09-21T05:21:57.906Z,99246.00
2018-09-21T05:24:27.242Z,99252.00
2018-09-21T05:26:56.602Z,99250.00
2018-09-21T05:29:25.965Z,99253.00
2018-09-21T05:31:55.330Z,99247.00
2018-09-21T05:34:24.672Z,99249.00
2018-09-21T05:36:54.008Z,99247.00
2018-09-21T05:39:23.358Z,99242.00
2018-09-21T05:41:52.848Z,99247.00
2018-09-21T05:44:22.207Z,99243.00
2018-09-21T05:46:51.549Z,99249.00
2018-09-21T05:49:20.884Z,99243.00
2018-09-21T05:51:50.245Z,99239.00
2018-09-21T05:54:19.613Z,99235.00
2018-09-21T05:56:49.150Z,99232.00
2018-09-21T05:59:18.610Z,99234.00
2018-09-21T06:01:47.946Z,99231.00
2018-09-21T06:04:17.283Z,99226.00
2018-09-21T06:06:46.641Z,99230.00
2018-09-21T06:09:16.037Z,99231.00
2018-09-21T06:11:45.405Z,99231.00
2018-09-21T06:14:14.787Z,99221.00
2018-09-21T06:16:44.171Z,99231.00
2018-09-21T06:19:13.551Z,99232.00
2018-09-21T06:21:43.037Z,99222.00
2018-09-21T06:24:12.382Z,99221.00
2018-09-21T06:26:41.698Z,99228.00
2018-09-21T06:29:11.081Z,99230.00
2018-09-21T06:31:40.435Z,99234.00
2018-09-21T06:34:09.976Z,99225.00
2018-09-21T06:36:39.347Z,99219.00
2018-09-21T06:39:10.887Z,99221.00
2018-09-21T06:41:40.518Z,99217.00
2018-09-21T06:44:10.693Z,99216.00
2018-09-21T06:46:40.085Z,99219.00
2018-09-21T06:49:09.420Z,99214.00
2018-09-21T06:51:39.143Z,99235.00
2018-09-21T06:54:08.346Z,99226.00
2018-09-21T06:56:37.698Z,99226.00
2018-09-21T06:59:07.336Z,99222.00
2018-09-21T07:01:36.874Z,99221.00
2018-09-21T07:04:06.229Z,99218.00
2018-09-21T07:06:35.654Z,99218.00
2018-09-21T07:09:08.657Z,99216.00
2018-09-21T07:11:38.012Z,99204.00
2018-09-21T07:14:07.349Z,99201.00
2018-09-21T07:16:36.808Z,99218.00
2018-09-21T07:19:06.199Z,99215.00
2018-09-21T07:21:35.549Z,99210.00
2018-09-21T07:24:04.853Z,99223.00
2018-09-21T07:26:34.337Z,99234.00
2018-09-21T07:29:04.142Z,99228.00
2018-09-21T07:31:33.673Z,99241.00
2018-09-21T07:34:05.199Z,99241.00
2018-09-21T07:36:34.525Z,99230.00
2018-09-21T07:39:04.754Z,99227.00
2018-09-21T07:41:34.096Z,99236.00
2018-09-21T07:44:03.423Z,99224.00
2018-09-21T07:46:32.820Z,99225.00
2018-09-21T07:49:02.291Z,99246.00
2018-09-21T07:51:31.527Z,99252.00
2018-09-21T07:54:00.852Z,99260.00
2018-09-21T07:56:30.513Z,99260.00
2018-09-21T07:59:00.037Z,99255.00
2018-09-21T08:01:29.407Z,99248.00
2018-09-21T08:03:58.746Z,99245.00
2018-09-21T08:06:28.102Z,99238.00
2018-09-21T08:08:57.439Z,99244.00
2018-09-21T08:11:26.760Z,99247.00
2018-09-21T08:13:56.081Z,99247.00
2018-09-21T08:16:25.485Z,99239.00
2018-09-21T08:18:54.921Z,99235.00
2018-09-21T08:21:24.259Z,99232.00
2018-09-21T08:23:53.645Z,99236.00
2018-09-21T08:26:23.067Z,99243.00
2018-09-21T08:28:52.388Z,99249.00
2018-09-21T08:31:21.796Z,99258.00
2018-09-21T08:33:51.714Z,99252.00
2018-09-21T08:36:21.513Z,99262.00
2018-09-21T08:38:50.890Z,99268.00
2018-09-21T08:41:20.275Z,99260.00
2018-09-21T08:43:49.649Z,99265.00
2018-09-21T08:46:50.963Z,99268.00
2018-09-21T08:49:20.368Z,99266.00
2018-09-21T08:51:49.709Z,99265.00
2018-09-21T08:54:19.061Z,99258.00
2018-09-21T08:56:48.395Z,99255.00
2018-09-21T08:59:17.761Z,99258.00
2018-09-21T09:01:47.085Z,99255.00
2018-09-21T09:04:16.461Z,99251.00
2018-09-21T09:06:45.802Z,99252.00
2018-09-21T09:09:15.149Z,99252.00
2018-09-21T09:11:44.537Z,99247.00
2018-09-21T09:14:13.923Z,99246.00
2018-09-21T09:16:43.299Z,99254.00
2018-09-21T09:19:12.656Z,99247.00
2018-09-21T09:21:42.057Z,99241.00
2018-09-21T09:24:11.430Z,99236.00
2018-09-21T09:26:40.876Z,99222.00
2018-09-21T09:29:10.248Z,99221.00
2018-09-21T09:31:39.697Z,99217.00
2018-09-21T09:34:09.446Z,99213.00
2018-09-21T09:36:38.874Z,99221.00
2018-09-21T09:39:11.516Z,99229.00
2018-09-21T09:41:41.533Z,99226.00
2018-09-21T09:44:11.477Z,99219.00
2018-09-21T09:46:40.889Z,99234.00
2018-09-21T09:49:10.276Z,99239.00
2018-09-21T09:51:39.559Z,99241.00
2018-09-21T09:54:08.974Z,99227.00
2018-09-21T09:56:38.353Z,99235.00
2018-09-21T09:59:07.871Z,99225.00
2018-09-21T10:01:37.288Z,99221.00
2018-09-21T10:04:06.654Z,99229.00
2018-09-21T10:06:37.865Z,99223.00
2018-09-21T10:09:12.044Z,99231.00
2018-09-21T10:11:41.659Z,99242.00
2018-09-21T10:14:10.973Z,99237.00
2018-09-21T10:16:40.320Z,99225.00
2018-09-21T10:19:09.728Z,99230.00
2018-09-21T10:21:39.032Z,99243.00
2018-09-21T10:24:08.470Z,99238.00
2018-09-21T10:26:37.848Z,99240.00
2018-09-21T10:29:07.210Z,99230.00
2018-09-21T10:31:36.595Z,99250.00
2018-09-21T10:34:06.100Z,99235.00
2018-09-21T10:36:35.576Z,99223.00
2018-09-21T10:39:06.679Z,99218.00
2018-09-21T10:41:36.441Z,99218.00
2018-09-21T10:44:05.777Z,99226.00
2018-09-21T10:46:35.328Z,99226.00
2018-09-21T10:49:04.671Z,99224.00
2018-09-21T10:51:34.041Z,99213.00
2018-09-21T10:54:03.468Z,99203.00
2018-09-21T10:56:32.880Z,99200.00
2018-09-21T10:59:02.303Z,99202.00
2018-09-21T11:01:31.721Z,99194.00
2018-09-21T11:04:01.091Z,99202.00
2018-09-21T11:06:30.575Z,99193.00
2018-09-21T11:09:03.076Z,99184.00
2018-09-21T11:11:34.550Z,99187.00
2018-09-21T11:14:03.952Z,99192.00
2018-09-21T11:16:33.809Z,99192.00
2018-09-21T11:19:03.182Z,99195.00
2018-09-21T11:21:32.526Z,99178.00
2018-09-21T11:24:01.899Z,99173.00
2018-09-21T11:26:32.272Z,99183.00
2018-09-21T11:29:01.650Z,99182.00
2018-09-21T11:31:31.001Z,99185.00
2018-09-21T11:34:00.379Z,99185.00
2018-09-21T11:36:29.904Z,99198.00
2018-09-21T11:38:59.309Z,99193.00
2018-09-21T11:41:28.671Z,99187.00
2018-09-21T11:43:58.130Z,99199.00
2018-09-21T11:46:27.473Z,99191.00
2018-09-21T11:48:56.900Z,99198.00
2018-09-21T11:51:26.286Z,99194.00
2018-09-21T11:53:55.704Z,99194.00
2018-09-21T11:56:25.082Z,99189.00
2018-09-21T11:58:54.479Z,99196.00
2018-09-21T12:01:23.870Z,99203.00
2018-09-21T12:03:53.597Z,99216.00
2018-09-21T12:06:22.998Z,99206.00
2018-09-21T12:08:52.342Z,99215.00
2018-09-21T12:11:21.673Z,99224.00
2018-09-21T12:13:51.036Z,99229.00
2018-09-21T12:16:20.411Z,99224.00
2018-09-21T12:18:49.810Z,99213.00
2018-09-21T12:21:19.136Z,99216.00
2018-09-21T12:23:48.689Z,99219.00
2018-09-21T12:26:18.068Z,99216.00
2018-09-21T12:28:47.480Z,99209.00
2018-09-21T12:31:16.857Z,99197.00
2018-09-21T12:33:46.241Z,99202.00
2018-09-21T12:36:15.720Z,99187.00
2018-09-21T12:38:45.163Z,99193.00
2018-09-21T12:41:14.500Z,99172.00
2018-09-21T12:43:43.863Z,99167.00
2018-09-21T12:46:26.676Z,99163.00
2018-09-21T12:49:00.017Z,99168.00
2018-09-21T12:51:29.387Z,99187.00
2018-09-21T12:53:58.735Z,99201.00
2018-09-21T12:56:28.130Z,99196.00
2018-09-21T12:58:57.503Z,99175.00
2018-09-21T13:01:26.804Z,99163.00
2018-09-21T13:03:56.253Z,99175.00
2018-09-21T13:06:25.840Z,99176.00
2018-09-21T13:08:55.173Z,99180.00
2018-09-21T13:11:24.561Z,99179.00
2018-09-21T13:13:53.998Z,99168.00
2018-09-21T13:16:23.405Z,99180.00
2018-09-21T13:18:52.799Z,99173.00
2018-09-21T13:21:22.210Z,99176.00
2018-09-21T13:23:51.694Z,99176.00
2018-09-21T13:26:21.106Z,99174.00
2018-09-21T13:28:50.513Z,99170.00
2018-09-21T13:31:20.191Z,99173.00
2018-09-21T13:33:49.596Z,99169.00
2018-09-21T13:36:19.186Z,99179.00
2018-09-21T13:38:48.665Z,99187.00
2018-09-21T13:41:18.067Z,99212.00
2018-09-21T13:43:51.238Z,99206.00
2018-09-21T13:46:20.720Z,99206.00
2018-09-21T13:48:50.083Z,99208.00
2018-09-21T13:51:19.503Z,99202.00
2018-09-21T13:53:48.906Z,99210.00
2018-09-21T13:56:18.288Z,99198.00
2018-09-21T13:58:47.728Z,99207.00
2018-09-21T14:01:17.237Z,99240.00
2018-09-21T14:03:46.611Z,99241.00
2018-09-21T14:06:16.100Z,99249.00
2018-09-21T14:08:45.441Z,99262.00
2018-09-21T14:11:14.884Z,99317.00
2018-09-21T14:13:44.278Z,99337.00
2018-09-21T14:16:13.948Z,99401.00
2018-09-21T14:18:43.428Z,99412.00
2018-09-21T14:21:12.996Z,99419.00
2018-09-21T14:23:42.298Z,99434.00
2018-09-21T14:26:11.725Z,99469.00
2018-09-21T14:28:41.144Z,99481.00
2018-09-21T14:31:10.545Z,99469.00
2018-09-21T14:33:39.950Z,99467.00
2018-09-21T14:36:09.413Z,99486.00
2018-09-21T14:38:38.792Z,99493.00
2018-09-21T14:41:08.320Z,99509.00
2018-09-21T14:43:37.700Z,99514.00
2018-09-21T14:46:07.088Z,99529.00
2018-09-21T14:48:36.501Z,99533.00
2018-09-21T14:51:05.908Z,99529.00
2018-09-21T14:53:35.300Z,99523.00
2018-09-21T14:56:04.677Z,99563.00
2018-09-21T14:58:34.133Z,99565.00
2018-09-21T15:01:03.537Z,99576.00
2018-09-21T15:03:33.021Z,99572.00
2018-09-21T15:06:02.545Z,99565.00
2018-09-21T15:08:32.054Z,99565.00
2018-09-21T15:11:01.404Z,99558.00
2018-09-21T15:13:30.846Z,99561.00
2018-09-21T15:16:00.241Z,99554.00
2018-09-21T15:18:29.679Z,99562.00
2018-09-21T15:20:59.187Z,99567.00
2018-09-21T15:23:28.932Z,99580.00
2018-09-21T15:26:00.208Z,99600.00
2018-09-21T15:28:31.809Z,99622.00
2018-09-21T15:31:02.161Z,99625.00
2018-09-21T15:33:33.680Z,99632.00
2018-09-21T15:36:05.316Z,99618.00
2018-09-21T15:38:36.762Z,99586.00
2018-09-21T15:41:08.461Z,99610.00
2018-09-21T15:43:40.151Z,99609.00
2018-09-21T15:46:11.881Z,99608.00
2018-09-21T15:48:43.788Z,99599.00
2018-09-21T15:51:15.483Z,99596.00
2018-09-21T15:53:44.941Z,99600.00
2018-09-21T15:56:14.395Z,99588.00
2018-09-21T15:58:43.851Z,99624.00
2018-09-21T16:01:15.491Z,99624.00
2018-09-21T16:03:44.922Z,99618.00
2018-09-21T16:06:14.419Z,99617.00
2018-09-21T16:08:43.833Z,99612.00
2018-09-21T16:11:13.349Z,99609.00
2018-09-21T16:13:42.717Z,99613.00
2018-09-21T16:16:12.182Z,99618.00
2018-09-21T16:18:42.466Z,99622.00
2018-09-21T16:21:11.864Z,99626.00
2018-09-21T16:23:41.244Z,99624.00
2018-09-21T16:26:10.613Z,99642.00
2018-09-21T16:28:40.044Z,99659.00
2018-09-21T16:31:09.370Z,99660.00
2018-09-21T16:33:38.761Z,99664.00
2018-09-21T16:36:08.134Z,99671.00
2018-09-21T16:38:37.590Z,99680.00
2018-09-21T16:41:07.188Z,99682.00
2018-09-21T16:43:36.628Z,99687.00
2018-09-21T16:46:06.016Z,99698.00
2018-09-21T16:48:35.408Z,99687.00
2018-09-21T16:51:04.987Z,99694.00
2018-09-21T16:53:34.404Z,99697.00
2018-09-21T16:56:03.792Z,99692.00
2018-09-21T16:58:33.216Z,99693.00
2018-09-21T17:01:02.554Z,99704.00
2018-09-21T17:03:32.031Z,99709.00
2018-09-21T17:06:01.441Z,99707.00
2018-09-21T17:08:30.850Z,99702.00
2018-09-21T17:11:00.260Z,99709.00
2018-09-21T17:13:29.773Z,99726.00
2018-09-21T17:15:59.241Z,99725.00
2018-09-21T17:18:28.667Z,99725.00
2018-09-21T17:20:58.072Z,99733.00
2018-09-21T17:23:27.473Z,99732.00
2018-09-21T17:25:56.880Z,99740.00
2018-09-21T17:28:26.491Z,99748.00
2018-09-21T17:30:55.877Z,99749.00
2018-09-21T17:33:25.239Z,99754.00
2018-09-21T17:35:54.591Z,99759.00
2018-09-21T17:38:23.994Z,99759.00
2018-09-21T17:40:53.497Z,99759.00
2018-09-21T17:43:22.903Z,99768.00
2018-09-21T17:45:52.334Z,99783.00
2018-09-21T17:48:21.959Z,99795.00
2018-09-21T17:50:51.428Z,99791.00
2018-09-21T17:53:20.850Z,99800.00
2018-09-21T17:55:50.416Z,99807.00
2018-09-21T17:58:19.766Z,99815.00
2018-09-21T18:00:49.239Z,99827.00
2018-09-21T18:03:18.721Z,99833.00
2018-09-21T18:05:48.154Z,99837.00
2018-09-21T18:08:17.563Z,99842.00
2018-09-21T18:10:46.940Z,99850.00
2018-09-21T18:13:16.356Z,99850.00
2018-09-21T18:15:45.832Z,99858.00
2018-09-21T18:18:15.381Z,99863.00
2018-09-21T18:20:44.973Z,99868.00
2018-09-21T18:23:14.381Z,99870.00
2018-09-21T18:25:43.810Z,99876.00
2018-09-21T18:28:13.237Z,99885.00
2018-09-21T18:30:42.701Z,99885.00
2018-09-21T18:33:12.159Z,99891.00
2018-09-21T18:35:42.957Z,99899.00
2018-09-21T18:38:12.396Z,99896.00
2018-09-21T18:40:41.908Z,99904.00
2018-09-21T18:43:11.414Z,99905.00
2018-09-21T18:45:40.894Z,99908.00
2018-09-21T18:48:10.436Z,99910.00
2018-09-21T18:50:39.999Z,99919.00
2018-09-21T18:53:10.284Z,99926.00
2018-09-21T18:55:39.796Z,99937.00
2018-09-21T18:58:09.330Z,99941.00
2018-09-21T19:00:38.777Z,99944.00
2018-09-21T19:03:08.220Z,99943.00
2018-09-21T19:05:37.774Z,99935.00
2018-09-21T19:08:07.175Z,99942.00
2018-09-21T19:10:36.605Z,99946.00
2018-09-21T19:13:06.080Z,99957.00
2018-09-21T19:15:35.579Z,99955.00
2018-09-21T19:18:05.065Z,99960.00
2018-09-21T19:20:34.790Z,99970.00
2018-09-21T19:23:04.737Z,99977.00
2018-09-21T19:25:34.514Z,99979.00
2018-09-21T19:28:04.252Z,99982.00
2018-09-21T19:30:34.070Z,99992.00
2018-09-21T19:33:03.883Z,99999.00
2018-09-21T19:35:33.468Z,100003.00
2018-09-21T19:38:02.996Z,100010.00
2018-09-21T19:40:32.552Z,100014.00
2018-09-21T19:43:02.080Z,100024.00
2018-09-21T19:45:31.477Z,100021.00
2018-09-21T19:48:00.932Z,100024.00
2018-09-21T19:50:30.459Z,100022.00
2018-09-21T19:52:59.929Z,100028.00
2018-09-21T19:55:29.413Z,100032.00
2018-09-21T19:57:58.917Z,100034.00
2018-09-21T20:00:28.941Z,100033.00
2018-09-21T20:02:58.367Z,100032.00
2018-09-21T20:05:27.875Z,100045.00
2018-09-21T20:07:57.344Z,100056.00
2018-09-21T20:10:26.819Z,100060.00
2018-09-21T20:12:56.297Z,100067.00
2018-09-21T20:15:25.721Z,100071.00
2018-09-21T20:17:55.132Z,100076.00
2018-09-21T20:20:24.542Z,100074.00
2018-09-21T20:22:53.919Z,100079.00
2018-09-21T20:25:23.428Z,100093.00
2018-09-21T20:27:52.829Z,100089.00
2018-09-21T20:30:27.507Z,100096.00
2018-09-21T20:33:02.019Z,100099.00
2018-09-21T20:35:31.440Z,100095.00
2018-09-21T20:38:00.877Z,100100.00
2018-09-21T20:40:30.335Z,100102.00
2018-09-21T20:42:59.816Z,100107.00
2018-09-21T20:45:29.268Z,100120.00
2018-09-21T20:47:58.725Z,100121.00
2018-09-21T20:50:28.371Z,100125.00
2018-09-21T20:52:57.730Z,100126.00
2018-09-21T20:55:27.348Z,100131.00
2018-09-21T20:57:56.780Z,100131.00
2018-09-21T21:00:26.273Z,100125.00
2018-09-21T21:02:55.664Z,100136.00
2018-09-21T21:05:25.204Z,100136.00
2018-09-21T21:07:54.609Z,100140.00
2018-09-21T21:10:24.069Z,100144.00
2018-09-21T21:12:53.483Z,100159.00
2018-09-21T21:15:22.879Z,100164.00
2018-09-21T21:17:52.358Z,100171.00
2018-09-21T21:20:21.901Z,100164.00
2018-09-21T21:22:51.594Z,100172.00
2018-09-21T21:25:21.002Z,100175.00
2018-09-21T21:27:50.424Z,100178.00
2018-09-21T21:30:19.857Z,100178.00
2018-09-21T21:32:49.272Z,100171.00
2018-09-21T21:35:18.663Z,100182.00
2018-09-21T21:37:48.044Z,100176.00
2018-09-21T21:40:17.453Z,100184.00
2018-09-21T21:42:46.817Z,100183.00
2018-09-21T21:45:16.257Z,100188.00
2018-09-21T21:47:45.667Z,100197.00
2018-09-21T21:50:15.080Z,100194.00
2018-09-21T21:52:44.506Z,100190.00
2018-09-21T21:55:13.922Z,100193.00
2018-09-21T21:57:43.280Z,100201.00
2018-09-21T22:00:12.771Z,100205.00
2018-09-21T22:02:42.842Z,100213.00
2018-09-21T22:05:12.321Z,100206.00
2018-09-21T22:07:41.751Z,100209.00
2018-09-21T22:10:11.314Z,100213.00
2018-09-21T22:12:45.864Z,100219.00
2018-09-21T22:15:19.885Z,100222.00
2018-09-21T22:17:50.000Z,100231.00
2018-09-21T22:20:19.352Z,100235.00
2018-09-21T22:22:48.718Z,100228.00
2018-09-21T22:25:18.062Z,100235.00
2018-09-21T22:27:47.440Z,100234.00
2018-09-21T22:30:16.796Z,100235.00
2018-09-21T22:32:46.183Z,100230.00
2018-09-21T22:35:15.573Z,100226.00
2018-09-21T22:37:44.944Z,100226.00
2018-09-21T22:40:14.280Z,100238.00
2018-09-21T22:42:43.724Z,100237.00
2018-09-21T22:45:13.164Z,100253.00
2018-09-21T22:47:42.493Z,100248.00
2018-09-21T22:50:11.900Z,100248.00
2018-09-21T22:52:41.236Z,100250.00
2018-09-21T22:55:10.728Z,100251.00
2018-09-21T22:57:40.123Z,100248.00
2018-09-21T23:00:09.300Z,100253.00
2018-09-21T23:02:38.656Z,100251.00
2018-09-21T23:05:08.055Z,100248.00
2018-09-21T23:07:37.449Z,100248.00
2018-09-21T23:10:06.847Z,100251.00
2018-09-21T23:12:36.204Z,100250.00
2018-09-21T23:15:05.561Z,100251.00
2018-09-21T23:17:34.968Z,100251.00
2018-09-21T23:20:04.353Z,100255.00
2018-09-21T23:22:33.699Z,100266.00
2018-09-21T23:25:03.128Z,100276.00
2018-09-21T23:27:32.463Z,100273.00
2018-09-21T23:30:01.891Z,100269.00
2018-09-21T23:32:31.267Z,100273.00
2018-09-21T23:35:00.660Z,100277.00
2018-09-21T23:37:30.081Z,100275.00
2018-09-21T23:39:59.396Z,100279.00
2018-09-21T23:42:28.764Z,100280.00
2018-09-21T23:44:58.100Z,100284.00
2018-09-21T23:47:27.504Z,100289.00
2018-09-21T23:49:56.862Z,100294.00
2018-09-21T23:52:26.218Z,100301.00
2018-09-21T23:54:55.708Z,100296.00
2018-09-21T23:57:25.099Z,100290.00
2018-09-21T23:59:54.451Z,100297.00
